Roanoke Regional Airport Airport (ROA)

 

Airport Diagram
Current Weather/Forecast (VFR Conditions)
METAR KROA 081754Z 21010KT 10SM FEW065 SCT085 23/13 A2974 RMK AO2 SLP061 60000 T02330128 10233 20150 58015
TAF KROA 081740Z 0818/0918 28010KT P6SM SCT045 BKN080 FM082000 27010G18KT P6SM VCTS BKN045CB BKN100 TEMPO 0820/0822 30025G40KT 2SM +TSRA OVC025CB FM090300 VRB04KT P6SM SCT070 BKN250 FM090900 25008G20KT 5SM SHRA BR BKN030 OVC070 FM091400 27016G31KT P6SM BKN060

All Charts
General
Chart Name Download
AIRPORT DIAGRAM
TAKEOFF MINIMUMS
ALTERNATE MINIMUMS
HOT SPOT

Departures
Chart Name Download
BUFIY THREE (RNAV)
DIXXY EIGHT
HOKEE THREE
MONAT THREE (RNAV)
SCUTA THREE (RNAV)

Approaches
Chart Name Download
ILS OR LOC RWY 34
RNAV (RNP) Z RWY 06
RNAV (RNP) Z RWY 24
RNAV (RNP) Z RWY 34
RNAV (GPS) Y RWY 06
RNAV (GPS) Y RWY 24
RNAV (GPS) Y RWY 34
LDA Y RWY 06
LDA Z RWY 06
VOR/DME-A


Inbound Traffic (Arrivals)

No inbound traffic.


Outbound Traffic (Departures)

No outbound traffic.